Time;durP1;ratioP1;P1;durP2;ratioP2;P2;SDS_P1;SDS_P2;PMS_P1;PMS_P2;Temp;Humidity;BMP_temperature;BMP_pressure;BME280_temperature;BME280_humidity;BME280_pressure;Samples;Min_cycle;Max_cycle;Signal;HPM_P1;HPM_P2
2021/10/27 00:01:10;;;;;;;47.33;25.38;;;13.60;99.90;;;;;;5116561;28;20480;-69
2021/10/27 00:03:36;;;;;;;49.83;25.38;;;13.70;99.90;;;;;;5116576;28;20139;-69
2021/10/27 00:06:02;;;;;;;39.40;24.15;;;13.60;99.90;;;;;;5116520;28;20112;-69
2021/10/27 00:08:28;;;;;;;41.17;23.15;;;13.70;99.90;;;;;;5115524;28;20096;-69
2021/10/27 00:10:54;;;;;;;51.47;24.23;;;13.60;99.90;;;;;;5116631;28;20062;-69
2021/10/27 00:13:20;;;;;;;44.50;23.58;;;13.70;99.90;;;;;;5116385;28;20036;-69
2021/10/27 00:15:46;;;;;;;44.70;24.40;;;13.60;99.90;;;;;;5115598;28;20035;-69
2021/10/27 00:18:12;;;;;;;43.08;24.15;;;13.60;99.90;;;;;;5116097;28;20406;-69
2021/10/27 00:20:37;;;;;;;35.13;23.88;;;13.60;99.90;;;;;;5114839;28;20129;-69
2021/10/27 00:23:03;;;;;;;44.22;24.98;;;13.70;99.90;;;;;;5116126;28;20463;-69
2021/10/27 00:25:29;;;;;;;50.70;24.85;;;13.70;99.90;;;;;;5115923;28;20059;-69
2021/10/27 00:27:54;;;;;;;46.47;24.35;;;13.70;99.90;;;;;;5115853;28;20044;-69
2021/10/27 00:30:20;;;;;;;38.47;22.92;;;13.70;99.90;;;;;;5115705;28;20067;-69
2021/10/27 00:32:46;;;;;;;41.38;24.02;;;13.80;99.90;;;;;;5114483;28;20038;-69
2021/10/27 00:35:11;;;;;;;34.38;23.05;;;13.80;99.90;;;;;;5115712;28;20039;-69
2021/10/27 00:37:37;;;;;;;36.85;22.27;;;13.80;99.90;;;;;;5114966;28;20039;-69
2021/10/27 00:40:04;;;;;;;39.17;23.77;;;13.80;99.90;;;;;;5115413;28;20042;-69
2021/10/27 00:42:29;;;;;;;41.05;22.48;;;13.70;99.90;;;;;;5116097;28;20035;-69
2021/10/27 00:44:55;;;;;;;38.42;23.48;;;13.80;99.90;;;;;;5115630;28;20042;-69
2021/10/27 00:47:21;;;;;;;36.58;21.63;;;13.70;99.90;;;;;;5115939;28;20043;-69
2021/10/27 00:49:48;;;;;;;36.80;20.60;;;13.70;99.90;;;;;;5115535;27;20063;-69
2021/10/27 00:52:15;;;;;;;38.22;21.92;;;13.80;99.90;;;;;;5115381;28;20055;-69
2021/10/27 00:54:43;;;;;;;32.00;20.58;;;13.90;99.90;;;;;;5115732;28;20381;-69
2021/10/27 00:57:11;;;;;;;35.55;20.25;;;13.90;99.90;;;;;;5115277;28;20399;-69
2021/10/27 00:59:42;;;;;;;30.00;19.33;;;13.90;99.90;;;;;;5115149;28;20043;-69
2021/10/27 01:02:09;;;;;;;29.52;18.63;;;13.90;99.90;;;;;;5113808;28;20511;-69
2021/10/27 01:04:36;;;;;;;36.53;19.83;;;13.80;99.90;;;;;;5115294;28;20115;-69
2021/10/27 01:07:02;;;;;;;32.55;19.17;;;13.90;99.90;;;;;;5115166;28;20039;-69
2021/10/27 01:09:28;;;;;;;32.58;19.15;;;13.90;99.90;;;;;;5114843;28;20039;-69
2021/10/27 01:11:53;;;;;;;33.10;18.45;;;13.90;99.90;;;;;;5113781;28;20039;-69
2021/10/27 01:14:19;;;;;;;38.10;19.15;;;13.90;99.90;;;;;;5115281;28;20071;-69
2021/10/27 01:16:46;;;;;;;31.52;18.45;;;13.90;99.90;;;;;;5115121;28;20491;-69
2021/10/27 01:19:11;;;;;;;34.08;19.17;;;13.90;99.90;;;;;;5114740;28;20040;-68
2021/10/27 01:21:40;;;;;;;33.88;18.42;;;13.90;99.90;;;;;;5113703;28;20096;-69
2021/10/27 01:24:06;;;;;;;30.77;18.20;;;13.80;99.90;;;;;;5114241;28;20079;-69
2021/10/27 01:26:33;;;;;;;32.53;18.33;;;13.80;99.90;;;;;;5113682;28;20047;-69
2021/10/27 01:28:58;;;;;;;32.78;16.88;;;13.80;99.90;;;;;;5114597;28;20107;-69
2021/10/27 01:31:24;;;;;;;34.88;16.98;;;13.80;99.90;;;;;;5114645;28;20455;-68
2021/10/27 01:33:50;;;;;;;31.67;17.05;;;13.80;99.90;;;;;;5114586;28;20480;-69
2021/10/27 01:36:18;;;;;;;29.00;15.95;;;13.80;99.90;;;;;;5114638;28;20484;-69
2021/10/27 01:38:45;;;;;;;27.35;15.10;;;13.90;99.90;;;;;;5114071;28;20054;-69
2021/10/27 01:41:11;;;;;;;26.23;15.30;;;13.90;99.90;;;;;;5114681;28;20035;-69
2021/10/27 01:43:52;;;;;;;23.70;14.88;;;13.90;99.90;;;;;;5113570;28;20050;-69
2021/10/27 01:46:30;;;;;;;30.42;14.88;;;13.90;99.90;;;;;;5114631;28;20039;-69
2021/10/27 01:48:59;;;;;;;31.23;14.48;;;13.90;99.90;;;;;;5114170;28;20484;-69
2021/10/27 01:51:26;;;;;;;26.92;15.45;;;13.90;99.90;;;;;;5112909;28;20051;-69
2021/10/27 01:53:53;;;;;;;31.40;14.90;;;13.90;99.90;;;;;;5112990;28;20426;-69
2021/10/27 01:56:19;;;;;;;27.10;14.55;;;14.00;99.90;;;;;;5114921;28;20036;-69
2021/10/27 01:58:44;;;;;;;26.67;13.73;;;13.90;99.90;;;;;;5114265;28;20043;-69
2021/10/27 02:01:10;;;;;;;21.63;13.52;;;14.00;99.90;;;;;;5114500;28;20046;-69
2021/10/27 02:03:36;;;;;;;27.20;13.57;;;14.00;99.90;;;;;;5112518;28;20046;-69
2021/10/27 02:06:01;;;;;;;30.20;13.90;;;14.00;99.90;;;;;;5113214;28;20044;-69
2021/10/27 02:08:27;;;;;;;25.45;13.10;;;14.00;99.90;;;;;;5113183;28;20055;-69
2021/10/27 02:10:52;;;;;;;22.23;11.63;;;14.00;99.90;;;;;;5113073;28;20439;-69
2021/10/27 02:13:18;;;;;;;26.48;11.32;;;13.90;99.90;;;;;;5114049;28;20036;-69
2021/10/27 02:15:43;;;;;;;23.30;12.15;;;14.00;99.90;;;;;;5113952;28;20036;-69
2021/10/27 02:18:09;;;;;;;28.75;13.25;;;13.90;99.90;;;;;;5113784;28;20445;-69
2021/10/27 02:20:35;;;;;;;28.10;11.93;;;14.00;99.90;;;;;;5112395;28;20043;-69
2021/10/27 02:23:00;;;;;;;27.95;13.20;;;14.00;99.90;;;;;;5113903;28;20038;-69
2021/10/27 02:25:26;;;;;;;27.33;13.13;;;14.00;99.90;;;;;;5114247;28;20157;-69
2021/10/27 02:27:51;;;;;;;24.98;13.63;;;14.00;99.90;;;;;;5113862;28;20114;-69
2021/10/27 02:30:17;;;;;;;29.40;13.07;;;14.00;99.90;;;;;;5113700;28;20038;-69
2021/10/27 02:32:43;;;;;;;29.27;15.32;;;14.00;99.90;;;;;;5113642;28;20071;-69
2021/10/27 02:35:08;;;;;;;37.22;15.07;;;14.00;99.90;;;;;;5113969;28;20039;-69
2021/10/27 02:37:34;;;;;;;31.38;14.88;;;13.90;99.90;;;;;;5112010;28;20559;-69
2021/10/27 02:40:00;;;;;;;29.63;16.45;;;14.00;99.90;;;;;;5113399;28;20039;-69
2021/10/27 02:42:25;;;;;;;26.63;14.23;;;14.00;99.90;;;;;;5113586;28;20047;-69
2021/10/27 02:44:51;;;;;;;30.45;15.57;;;13.90;99.90;;;;;;5113582;28;20158;-69
2021/10/27 02:47:16;;;;;;;32.70;15.90;;;13.90;99.90;;;;;;5113547;28;20040;-69
2021/10/27 02:49:42;;;;;;;30.23;14.23;;;13.90;99.90;;;;;;5111938;28;20040;-69
2021/10/27 02:52:08;;;;;;;33.53;15.38;;;14.00;99.90;;;;;;5113343;28;20046;-69
2021/10/27 02:54:33;;;;;;;28.15;14.68;;;14.00;99.90;;;;;;5113390;28;20039;-69
2021/10/27 02:56:59;;;;;;;26.02;13.52;;;13.90;99.90;;;;;;5112498;28;20035;-69
2021/10/27 02:59:25;;;;;;;35.10;15.52;;;13.90;99.90;;;;;;5113168;28;20487;-69
2021/10/27 03:01:50;;;;;;;33.55;15.15;;;13.90;99.90;;;;;;5113984;28;20372;-69
2021/10/27 03:04:16;;;;;;;31.45;15.18;;;13.90;99.90;;;;;;5113600;28;20119;-69
2021/10/27 03:06:41;;;;;;;29.52;15.40;;;14.00;99.90;;;;;;5113596;28;20044;-69
2021/10/27 03:09:07;;;;;;;26.67;14.13;;;13.90;99.90;;;;;;5113150;28;20042;-69
2021/10/27 03:11:33;;;;;;;29.98;14.55;;;14.00;99.90;;;;;;5112037;28;20047;-69
2021/10/27 03:13:58;;;;;;;27.08;13.43;;;13.90;99.90;;;;;;5113906;28;20045;-69
2021/10/27 03:16:24;;;;;;;26.90;14.18;;;13.90;99.90;;;;;;5112690;28;20079;-69
2021/10/27 03:18:49;;;;;;;25.88;14.68;;;13.90;99.90;;;;;;5113021;28;20050;-69
2021/10/27 03:21:15;;;;;;;28.73;14.70;;;13.90;99.90;;;;;;5113430;28;20073;-69
2021/10/27 03:23:41;;;;;;;27.75;14.88;;;14.00;99.90;;;;;;5112358;28;20404;-69
2021/10/27 03:26:07;;;;;;;34.80;16.40;;;13.90;99.90;;;;;;5112261;28;20085;-69
2021/10/27 03:28:32;;;;;;;27.83;14.75;;;14.00;99.90;;;;;;5112091;28;20036;-70
2021/10/27 03:30:58;;;;;;;31.73;14.48;;;14.00;99.90;;;;;;5113260;28;20070;-69
2021/10/27 03:33:24;;;;;;;24.63;13.57;;;14.00;99.90;;;;;;5113451;28;20080;-69
2021/10/27 03:35:50;;;;;;;31.88;13.25;;;14.00;99.90;;;;;;5113225;28;20031;-69
2021/10/27 03:38:16;;;;;;;28.17;13.88;;;14.00;99.90;;;;;;5113189;28;20036;-69
2021/10/27 03:40:43;;;;;;;26.33;12.65;;;14.00;99.90;;;;;;5111489;28;20119;-69
2021/10/27 03:43:09;;;;;;;21.75;11.63;;;14.00;99.90;;;;;;5113358;28;20112;-69
2021/10/27 03:45:34;;;;;;;22.15;12.38;;;14.00;99.90;;;;;;5113014;28;20494;-69
2021/10/27 03:48:00;;;;;;;20.55;11.38;;;14.00;99.90;;;;;;5112963;28;20031;-69
2021/10/27 03:50:26;;;;;;;22.50;9.95;;;14.00;99.90;;;;;;5114535;28;20039;-69
2021/10/27 03:52:51;;;;;;;19.23;8.25;;;13.90;99.90;;;;;;5117210;28;20468;-69
2021/10/27 03:55:17;;;;;;;19.45;8.70;;;14.00;99.90;;;;;;5117082;28;20046;-69
2021/10/27 03:57:42;;;;;;;25.85;8.90;;;14.00;99.90;;;;;;5115841;28;20043;-69
2021/10/27 04:00:11;;;;;;;15.93;7.05;;;14.00;99.90;;;;;;5114822;28;20491;-69
2021/10/27 04:02:39;;;;;;;25.77;7.82;;;14.00;99.90;;;;;;5115587;28;20097;-68
2021/10/27 04:05:05;;;;;;;14.18;6.45;;;14.00;99.90;;;;;;5116498;28;20089;-69
2021/10/27 04:07:31;;;;;;;12.73;5.65;;;14.10;99.90;;;;;;5115444;28;20047;-69
2021/10/27 04:09:57;;;;;;;16.48;6.10;;;14.10;99.90;;;;;;5115991;27;20480;-69
2021/10/27 04:12:22;;;;;;;15.98;5.72;;;14.10;99.90;;;;;;5116607;28;20027;-69
2021/10/27 04:14:48;;;;;;;12.65;4.70;;;14.10;99.90;;;;;;5116444;28;20487;-69
2021/10/27 04:17:14;;;;;;;17.05;6.05;;;14.00;99.90;;;;;;5116003;28;20036;-69
2021/10/27 04:19:39;;;;;;;20.58;5.72;;;14.00;99.90;;;;;;5116134;28;20115;-69
2021/10/27 04:22:05;;;;;;;15.10;5.20;;;14.10;99.90;;;;;;5116364;28;20031;-69
2021/10/27 04:24:31;;;;;;;12.15;5.05;;;14.00;99.90;;;;;;5116267;28;20051;-69
2021/10/27 04:26:56;;;;;;;16.52;4.95;;;14.10;99.90;;;;;;5116077;28;20063;-69
2021/10/27 04:29:22;;;;;;;19.58;5.05;;;14.10;99.90;;;;;;5115743;27;20040;-69
2021/10/27 04:31:48;;;;;;;19.38;5.47;;;14.10;99.90;;;;;;5114713;28;20043;-69
2021/10/27 04:34:14;;;;;;;18.48;5.05;;;14.10;99.90;;;;;;5114601;28;20074;-69
2021/10/27 04:36:39;;;;;;;12.25;5.22;;;14.10;99.90;;;;;;5114413;28;20130;-69
2021/10/27 04:39:05;;;;;;;25.63;5.13;;;14.10;99.90;;;;;;5114111;28;20122;-69
2021/10/27 04:41:31;;;;;;;20.08;5.30;;;14.10;99.90;;;;;;5116139;28;20047;-69
2021/10/27 04:43:57;;;;;;;16.95;5.25;;;14.10;99.90;;;;;;5116094;28;20039;-69
2021/10/27 04:46:23;;;;;;;21.80;5.90;;;14.20;99.90;;;;;;5116133;28;20067;-69
2021/10/27 04:48:49;;;;;;;14.10;4.75;;;14.10;99.90;;;;;;5115511;28;20050;-69
2021/10/27 04:51:14;;;;;;;17.40;5.22;;;14.10;99.90;;;;;;5114381;28;20123;-69
2021/10/27 04:53:40;;;;;;;22.13;5.13;;;14.10;99.90;;;;;;5115880;28;20039;-69
2021/10/27 04:56:06;;;;;;;16.95;5.20;;;14.10;99.90;;;;;;5114106;28;20035;-69
2021/10/27 04:58:31;;;;;;;11.65;5.30;;;14.20;99.90;;;;;;5115399;28;20035;-69
2021/10/27 05:00:57;;;;;;;13.80;5.53;;;14.20;99.90;;;;;;5115611;28;20075;-69
2021/10/27 05:03:23;;;;;;;22.73;5.60;;;14.20;99.90;;;;;;5115039;28;20047;-69
2021/10/27 05:05:52;;;;;;;19.88;5.32;;;14.10;99.90;;;;;;5114220;28;20043;-69
2021/10/27 05:08:21;;;;;;;19.63;6.10;;;14.10;99.90;;;;;;5115127;28;20475;-69
2021/10/27 05:10:47;;;;;;;24.20;6.43;;;14.10;99.90;;;;;;5114160;28;20044;-69
2021/10/27 05:13:13;;;;;;;19.08;6.45;;;14.10;99.90;;;;;;5114952;28;20039;-69
2021/10/27 05:15:39;;;;;;;13.57;6.13;;;14.00;99.90;;;;;;5115208;28;20044;-69
2021/10/27 05:18:05;;;;;;;22.25;6.72;;;14.00;99.90;;;;;;5114798;28;20522;-69
2021/10/27 05:20:31;;;;;;;15.23;7.40;;;14.00;99.90;;;;;;5114662;28;20043;-69
2021/10/27 05:22:56;;;;;;;20.23;6.10;;;14.10;99.90;;;;;;5114726;28;20483;-69
2021/10/27 05:25:22;;;;;;;23.30;6.75;;;14.00;99.90;;;;;;5114680;28;20050;-69
2021/10/27 05:27:48;;;;;;;22.65;7.45;;;14.00;99.90;;;;;;5114629;28;20096;-69
2021/10/27 05:30:13;;;;;;;14.93;6.35;;;14.10;99.90;;;;;;5114490;28;20032;-69
2021/10/27 05:32:39;;;;;;;22.08;6.97;;;14.00;99.90;;;;;;5114918;28;20031;-69
2021/10/27 05:35:05;;;;;;;18.25;6.13;;;14.10;99.90;;;;;;5113641;28;20043;-69
2021/10/27 05:37:31;;;;;;;24.05;6.55;;;14.20;99.90;;;;;;5115140;27;20040;-69
2021/10/27 05:39:57;;;;;;;16.60;5.35;;;14.20;99.90;;;;;;5112928;28;20043;-69
2021/10/27 05:42:27;;;;;;;20.98;7.18;;;14.10;99.90;;;;;;5114910;28;20126;-69
2021/10/27 05:44:53;;;;;;;22.45;6.25;;;14.20;99.90;;;;;;5114319;28;20395;-69
2021/10/27 05:47:18;;;;;;;19.58;6.80;;;14.20;99.90;;;;;;5114579;28;20031;-69
2021/10/27 05:49:53;;;;;;;20.80;5.63;;;14.20;99.90;;;;;;5113954;28;20540;-69
2021/10/27 05:57:50;;;;;;;17.50;6.93;;;14.20;99.90;;;;;;5113127;28;20075;-69
2021/10/27 06:00:14;;;;;;;18.65;5.68;;;14.20;99.90;;;;;;5113862;28;20062;-69
2021/10/27 06:02:40;;;;;;;20.42;5.95;;;14.20;99.90;;;;;;5113978;28;20496;-69
2021/10/27 06:05:06;;;;;;;18.02;6.38;;;14.20;99.90;;;;;;5112692;28;20044;-69
2021/10/27 06:07:32;;;;;;;18.48;6.40;;;14.20;99.90;;;;;;5114281;28;20046;-69
2021/10/27 06:09:59;;;;;;;17.63;5.85;;;14.20;99.90;;;;;;5114016;28;20032;-69
2021/10/27 06:12:25;;;;;;;24.63;6.25;;;14.20;99.90;;;;;;5113499;28;20043;-69
2021/10/27 06:14:50;;;;;;;16.90;6.22;;;14.10;99.90;;;;;;5114714;28;20046;-69
2021/10/27 06:17:16;;;;;;;20.60;5.28;;;14.10;99.90;;;;;;5113910;28;20039;-69
2021/10/27 06:19:42;;;;;;;16.27;5.70;;;14.10;99.90;;;;;;5113565;28;20043;-69
2021/10/27 06:22:09;;;;;;;17.75;7.03;;;14.10;99.90;;;;;;5113755;28;20040;-69
2021/10/27 06:24:36;;;;;;;24.35;6.55;;;14.10;99.90;;;;;;5113765;28;20122;-69
2021/10/27 06:27:03;;;;;;;23.35;6.45;;;14.10;99.90;;;;;;5114021;28;20379;-69
2021/10/27 06:29:33;;;;;;;26.25;7.18;;;14.20;99.90;;;;;;5113478;28;20035;-69
2021/10/27 06:32:10;;;;;;;22.08;6.35;;;14.20;99.90;;;;;;5114108;28;20096;-68
2021/10/27 06:34:39;;;;;;;23.63;7.47;;;14.20;99.90;;;;;;5113712;28;20039;-69
2021/10/27 06:37:31;;;;;;;17.80;7.45;;;14.20;99.90;;;;;;5113765;28;20108;-69
2021/10/27 06:48:03;;;;;;;17.20;8.73;;;14.20;99.90;;;;;;5113614;28;20052;-69
2021/10/27 06:50:29;;;;;;;22.60;9.88;;;14.20;99.90;;;;;;5113788;28;20046;-69
2021/10/27 06:52:55;;;;;;;30.98;10.15;;;14.20;99.90;;;;;;5113639;28;20100;-69
2021/10/27 06:55:21;;;;;;;26.00;9.82;;;14.10;99.90;;;;;;5113606;28;20040;-69
2021/10/27 06:57:47;;;;;;;21.73;10.25;;;14.20;99.90;;;;;;5113506;28;20429;-69
2021/10/27 07:00:21;;;;;;;17.02;9.40;;;14.20;99.90;;;;;;5113370;28;20483;-69
2021/10/27 07:03:06;;;;;;;20.92;10.38;;;14.30;99.90;;;;;;5113705;28;20046;-69
2021/10/27 07:16:28;;;;;;;17.08;11.25;;;14.20;99.90;;;;;;5112137;28;20464;-69
2021/10/27 07:18:54;;;;;;;18.88;11.75;;;14.20;99.90;;;;;;5112862;28;20031;-70
2021/10/27 07:21:20;;;;;;;22.23;12.25;;;14.20;99.90;;;;;;5113565;28;20491;-69
2021/10/27 07:23:46;;;;;;;25.80;12.57;;;14.30;99.90;;;;;;5114709;28;20039;-69
2021/10/27 07:26:12;;;;;;;25.02;12.75;;;14.20;99.90;;;;;;5117634;28;20037;-70
2021/10/27 07:28:38;;;;;;;20.98;12.45;;;14.10;99.90;;;;;;5117373;28;20387;-70
2021/10/27 07:31:04;;;;;;;17.73;11.35;;;14.10;99.90;;;;;;5117207;28;20122;-69
2021/10/27 07:33:30;;;;;;;25.88;13.27;;;14.20;99.90;;;;;;5117162;28;20090;-69
2021/10/27 07:36:08;;;;;;;28.70;12.02;;;14.20;99.90;;;;;;5116921;28;20036;-69
2021/10/27 07:41:18;;;;;;;18.65;11.50;;;14.20;99.90;;;;;;5116938;27;20035;-69
2021/10/27 07:43:45;;;;;;;20.20;11.45;;;14.20;99.90;;;;;;5117011;28;20537;-69
2021/10/27 07:46:10;;;;;;;20.63;11.52;;;14.20;99.90;;;;;;5117016;27;20036;-69
2021/10/27 07:48:36;;;;;;;20.98;11.45;;;14.30;99.90;;;;;;5115277;28;20084;-69
2021/10/27 07:51:02;;;;;;;24.80;11.63;;;14.30;99.90;;;;;;5116785;28;20094;-68
2021/10/27 07:53:30;;;;;;;23.15;11.82;;;14.30;99.90;;;;;;5116872;28;20441;-69
2021/10/27 07:55:56;;;;;;;22.67;12.27;;;14.40;99.90;;;;;;5116936;28;20091;-69
2021/10/27 07:58:24;;;;;;;17.88;11.77;;;14.40;99.90;;;;;;5116945;28;20264;-69
2021/10/27 08:00:58;;;;;;;21.38;11.93;;;14.30;99.90;;;;;;5115123;28;20036;-68
2021/10/27 08:03:24;;;;;;;22.33;11.95;;;14.40;99.90;;;;;;5116662;28;20032;-68
2021/10/27 08:05:50;;;;;;;19.15;12.65;;;14.40;99.90;;;;;;5116539;28;20036;-67
2021/10/27 08:08:22;;;;;;;22.58;12.15;;;14.40;99.90;;;;;;5116444;28;20086;-69
2021/10/27 08:10:48;;;;;;;22.35;13.88;;;14.40;99.90;;;;;;5116101;28;20039;-68
2021/10/27 08:13:14;;;;;;;21.38;13.18;;;14.30;99.90;;;;;;5116597;28;20044;-69
2021/10/27 08:15:40;;;;;;;21.10;12.38;;;14.30;99.90;;;;;;5115304;28;20050;-68
2021/10/27 08:18:11;;;;;;;20.92;13.18;;;14.30;99.90;;;;;;5116216;28;20036;-69
2021/10/27 08:20:37;;;;;;;20.48;12.75;;;14.40;99.90;;;;;;5114542;28;20131;-68
2021/10/27 08:23:06;;;;;;;23.27;13.80;;;14.30;99.90;;;;;;5114602;28;20047;-69
2021/10/27 08:25:36;;;;;;;23.65;12.77;;;14.30;99.90;;;;;;5114827;28;20058;-69
2021/10/27 08:28:06;;;;;;;16.58;11.52;;;14.30;99.90;;;;;;5116325;28;20485;-69
2021/10/27 08:30:37;;;;;;;20.77;13.00;;;14.30;99.90;;;;;;5115885;28;20441;-69
2021/10/27 08:33:06;;;;;;;22.40;13.30;;;14.40;99.90;;;;;;5116059;28;20499;-69
2021/10/27 08:35:34;;;;;;;21.50;13.70;;;14.40;99.90;;;;;;5115494;28;20375;-69
2021/10/27 08:38:01;;;;;;;27.58;13.77;;;14.40;99.90;;;;;;5116061;28;20039;-69
2021/10/27 08:40:27;;;;;;;19.30;13.43;;;14.40;99.90;;;;;;5115801;28;20059;-69
2021/10/27 08:42:56;;;;;;;22.88;13.45;;;14.40;99.90;;;;;;5115961;28;20043;-67
2021/10/27 08:45:22;;;;;;;18.20;13.40;;;14.40;99.90;;;;;;5115542;28;20055;-68
2021/10/27 08:47:51;;;;;;;20.13;13.73;;;14.40;99.90;;;;;;5115626;27;20042;-69
2021/10/27 08:50:19;;;;;;;20.98;12.90;;;14.50;99.90;;;;;;5113986;28;20043;-70
2021/10/27 08:52:45;;;;;;;23.08;13.20;;;14.50;99.90;;;;;;5115313;28;20122;-70
2021/10/27 08:55:13;;;;;;;19.38;11.93;;;14.50;99.90;;;;;;5114583;28;20169;-70
2021/10/27 08:57:40;;;;;;;25.63;12.13;;;14.50;99.90;;;;;;5115662;28;20476;-70
2021/10/27 09:00:21;;;;;;;25.23;11.98;;;14.50;99.90;;;;;;5114068;28;20114;-70
2021/10/27 09:03:01;;;;;;;20.55;11.63;;;14.50;99.90;;;;;;5113955;28;20046;-70
2021/10/27 09:05:54;;;;;;;24.35;11.25;;;14.50;99.90;;;;;;5115623;28;20040;-70
2021/10/27 09:39:08;;;;;;;16.02;9.05;;;14.50;99.90;;;;;;5113245;28;20100;-70
2021/10/27 10:06:25;;;;;;;16.40;7.63;;;14.50;99.90;;;;;;5112909;28;20055;-70
2021/10/27 10:08:52;;;;;;;12.15;7.85;;;14.50;99.90;;;;;;5114045;28;20047;-70
2021/10/27 10:11:20;;;;;;;17.38;7.80;;;14.50;99.90;;;;;;5113896;28;20430;-70
2021/10/27 10:13:46;;;;;;;16.58;7.13;;;14.50;99.90;;;;;;5114242;28;20032;-70
2021/10/27 10:16:13;;;;;;;11.43;7.55;;;14.50;99.90;;;;;;5114061;28;20046;-70
2021/10/27 10:18:40;;;;;;;13.45;6.72;;;14.60;99.90;;;;;;5113680;28;20054;-70
2021/10/27 10:21:06;;;;;;;15.95;6.85;;;14.70;99.90;;;;;;5112693;28;20107;-70
2021/10/27 10:23:32;;;;;;;13.25;6.85;;;14.70;99.90;;;;;;5112929;28;20065;-70
2021/10/27 10:26:06;;;;;;;13.73;7.13;;;14.80;99.90;;;;;;5112560;28;20039;-70
2021/10/27 10:28:42;;;;;;;14.10;6.95;;;14.80;99.90;;;;;;5112122;28;20497;-70
2021/10/27 10:31:09;;;;;;;14.48;6.32;;;14.80;99.90;;;;;;5114110;28;20050;-70
2021/10/27 10:33:42;;;;;;;13.82;5.90;;;14.80;99.90;;;;;;5112395;28;20031;-70
2021/10/27 10:36:20;;;;;;;;;;;14.80;99.90;;;;;;5113181;28;20044;-70
2021/10/27 11:38:15;;;;;;;10.27;3.17;;;15.30;99.90;;;;;;5117214;27;20047;-70
2021/10/27 11:40:44;;;;;;;9.82;3.70;;;15.30;99.90;;;;;;5115102;28;20047;-70
2021/10/27 11:45:52;;;;;;;10.45;4.00;;;15.30;99.90;;;;;;5116874;28;20108;-70
2021/10/27 11:50:56;;;;;;;12.75;3.78;;;15.30;99.90;;;;;;5115416;28;20043;-70
2021/10/27 11:53:27;;;;;;;8.52;3.42;;;15.20;99.90;;;;;;5117165;28;20380;-70
2021/10/27 11:55:54;;;;;;;10.15;3.00;;;15.30;99.90;;;;;;5116738;28;20047;-70
2021/10/27 11:58:22;;;;;;;8.00;3.53;;;15.30;99.90;;;;;;5116840;28;20058;-70
2021/10/27 12:00:57;;;;;;;8.95;3.53;;;15.30;99.90;;;;;;5114980;28;20039;-70
2021/10/27 12:03:33;;;;;;;10.43;3.42;;;15.30;99.90;;;;;;5115394;28;20047;-70
2021/10/27 12:06:03;;;;;;;14.07;3.72;;;15.30;99.90;;;;;;5116316;28;20053;-70
2021/10/27 12:08:39;;;;;;;6.53;3.22;;;15.30;99.90;;;;;;5115002;28;20533;-70
2021/10/27 12:11:19;;;;;;;10.27;3.58;;;15.30;99.90;;;;;;5114497;28;20039;-70
2021/10/27 12:14:01;;;;;;;11.20;2.95;;;15.30;99.90;;;;;;5114966;28;20039;-70
2021/10/27 12:16:32;;;;;;;7.30;2.80;;;15.30;99.90;;;;;;5115263;28;20051;-70
2021/10/27 12:19:21;;;;;;;7.68;2.70;;;15.30;99.90;;;;;;5114539;28;20085;-70
2021/10/27 12:21:53;;;;;;;8.05;3.13;;;15.30;99.90;;;;;;5115181;28;20053;-70
2021/10/27 12:24:22;;;;;;;5.35;2.75;;;15.30;99.90;;;;;;5115985;28;20094;-70
2021/10/27 12:27:03;;;;;;;10.23;2.85;;;15.30;99.90;;;;;;5116130;28;20479;-70
2021/10/27 12:29:31;;;;;;;8.38;3.10;;;15.30;99.90;;;;;;5114766;28;20082;-70
2021/10/27 12:32:07;;;;;;;9.57;2.92;;;15.30;99.90;;;;;;5116176;28;20032;-70
2021/10/27 12:34:50;;;;;;;8.30;3.42;;;15.30;99.90;;;;;;5114548;28;20044;-70
2021/10/27 12:37:50;;;;;;;14.70;3.78;;;15.30;99.90;;;;;;5116101;28;20036;-70
2021/10/27 12:40:32;;;;;;;10.95;3.17;;;15.20;99.90;;;;;;5114490;28;20047;-70
2021/10/27 12:43:06;;;;;;;9.73;3.35;;;15.30;99.90;;;;;;5115672;28;20043;-70
2021/10/27 12:45:34;;;;;;;8.45;3.20;;;15.30;99.90;;;;;;5114325;28;20059;-70
2021/10/27 12:48:05;;;;;;;10.15;3.53;;;15.30;99.90;;;;;;5114478;28;20036;-70
2021/10/27 12:50:31;;;;;;;10.77;3.40;;;15.30;99.90;;;;;;5114376;28;20047;-70
2021/10/27 12:53:00;;;;;;;9.27;3.83;;;15.10;99.90;;;;;;5115766;28;20535;-70
2021/10/27 12:55:28;;;;;;;7.72;3.70;;;15.10;99.90;;;;;;5114445;28;20044;-70
2021/10/27 12:57:59;;;;;;;11.57;4.25;;;15.10;99.90;;;;;;5115383;28;20074;-70
2021/10/27 13:06:39;;;;;;;15.00;4.60;;;15.10;99.90;;;;;;5113797;28;20039;-68
2021/10/27 13:22:36;;;;;;;10.93;3.40;;;15.50;99.90;;;;;;5114995;28;20040;-68
2021/10/27 13:30:35;;;;;;;11.55;4.32;;;15.50;99.90;;;;;;5114410;28;20536;-69
2021/10/27 13:33:04;;;;;;;10.70;3.75;;;15.50;99.90;;;;;;5115179;28;20503;-69
2021/10/27 13:35:33;;;;;;;6.70;3.13;;;15.60;99.90;;;;;;5113554;28;20483;-69
2021/10/27 13:37:59;;;;;;;11.23;3.40;;;15.50;99.90;;;;;;5113532;28;20047;-68
2021/10/27 13:40:26;;;;;;;8.77;3.13;;;15.50;99.90;;;;;;5114064;28;20070;-69
2021/10/27 13:45:32;;;;;;;8.07;3.40;;;15.50;99.90;;;;;;5114973;28;20055;-69
2021/10/27 13:48:06;;;;;;;6.55;2.95;;;15.50;99.90;;;;;;5113355;28;20111;-69
2021/10/27 14:06:00;;;;;;;6.05;2.72;;;15.30;99.90;;;;;;5114514;28;20077;-69
2021/10/27 14:07:17;;;;;;;9.50;3.20;;;15.40;99.90;;;;;;5112642;28;20408;-69
2021/10/27 14:20:13;;;;;;;5.25;2.60;;;15.30;99.90;;;;;;5112564;28;20047;-68
2021/10/27 15:19:49;;;;;;;4.07;2.72;;;15.00;99.90;;;;;;5112970;28;20040;-71
2021/10/27 15:32:28;;;;;;;5.68;2.80;;;15.00;99.90;;;;;;5091500;28;20542;-71
2021/10/27 15:35:15;;;;;;;7.50;2.30;;;15.00;99.90;;;;;;5093266;28;20072;-70
2021/10/27 15:51:08;;;;;;;6.07;2.15;;;14.90;99.90;;;;;;5096335;28;20040;-70
2021/10/27 15:53:35;;;;;;;6.07;2.10;;;14.90;99.90;;;;;;5096498;28;20043;-70
2021/10/27 15:56:01;;;;;;;6.03;2.35;;;14.90;99.90;;;;;;5096359;28;20403;-71
2021/10/27 15:58:29;;;;;;;5.45;2.10;;;14.90;99.90;;;;;;5096139;28;20040;-71
2021/10/27 16:00:54;;;;;;;4.90;1.80;;;14.90;99.90;;;;;;5096417;28;20439;-70
2021/10/27 16:03:23;;;;;;;7.13;2.55;;;14.90;99.90;;;;;;5096180;28;20040;-70
2021/10/27 16:05:50;;;;;;;6.05;2.40;;;14.90;99.90;;;;;;5096263;28;20050;-71
2021/10/27 16:08:19;;;;;;;3.63;1.83;;;14.90;99.90;;;;;;5096522;28;20036;-71
2021/10/27 16:10:47;;;;;;;9.25;2.50;;;14.90;99.90;;;;;;5095712;28;20036;-70
2021/10/27 16:13:13;;;;;;;5.45;2.38;;;14.80;99.90;;;;;;5095196;28;20044;-71
2021/10/27 16:15:51;;;;;;;6.90;2.20;;;14.80;99.90;;;;;;5096497;28;20040;-71
2021/10/27 16:18:17;;;;;;;3.70;2.53;;;14.90;99.90;;;;;;5095841;28;20048;-71
2021/10/27 16:20:44;;;;;;;6.40;2.80;;;14.80;99.90;;;;;;5094433;28;20056;-71
2021/10/27 16:23:12;;;;;;;13.38;3.83;;;14.80;99.90;;;;;;5111860;28;20079;-70
2021/10/27 16:25:39;;;;;;;6.07;3.00;;;14.80;99.90;;;;;;5096291;28;20079;-70
2021/10/27 16:28:06;;;;;;;6.95;2.83;;;14.80;99.90;;;;;;5095719;28;20071;-71
2021/10/27 16:30:33;;;;;;;7.95;3.13;;;14.90;99.90;;;;;;5095730;28;20499;-71
2021/10/27 16:32:58;;;;;;;7.10;2.60;;;14.80;99.90;;;;;;5095840;28;20490;-71
2021/10/27 16:35:24;;;;;;;7.80;3.40;;;14.80;99.90;;;;;;5095592;28;20070;-71
2021/10/27 16:37:50;;;;;;;7.60;2.72;;;14.80;99.90;;;;;;5095688;28;20043;-71
2021/10/27 16:40:16;;;;;;;5.75;2.65;;;14.90;99.90;;;;;;5111220;28;20044;-71
2021/10/27 16:42:42;;;;;;;5.93;2.60;;;14.80;99.90;;;;;;5095249;28;20040;-72
2021/10/27 16:45:10;;;;;;;10.57;2.92;;;14.70;99.90;;;;;;5095750;28;20036;-71
2021/10/27 16:47:36;;;;;;;5.05;2.58;;;14.70;99.90;;;;;;5095335;28;20047;-71
2021/10/27 16:50:07;;;;;;;9.70;2.97;;;14.80;99.90;;;;;;5095002;28;20036;-71
2021/10/27 16:52:34;;;;;;;11.25;3.50;;;14.70;99.90;;;;;;5094949;28;20207;-71
2021/10/27 16:54:59;;;;;;;4.13;3.10;;;14.70;99.90;;;;;;5095519;28;20044;-72
2021/10/27 16:57:27;;;;;;;7.40;2.97;;;14.70;99.90;;;;;;5093052;28;20055;-71
2021/10/27 16:59:53;;;;;;;8.90;2.90;;;14.70;99.90;;;;;;5095015;28;20048;-72
2021/10/27 17:02:18;;;;;;;8.13;3.08;;;14.70;99.90;;;;;;5095462;28;20036;-71
2021/10/27 17:04:44;;;;;;;5.95;3.17;;;14.60;99.90;;;;;;5095206;28;20040;-71
2021/10/27 17:07:10;;;;;;;8.27;3.38;;;14.60;99.90;;;;;;5093584;28;20035;-71
2021/10/27 17:09:39;;;;;;;8.70;3.30;;;14.50;99.90;;;;;;5110404;28;20062;-72
2021/10/27 17:12:06;;;;;;;9.80;3.65;;;14.60;99.90;;;;;;5094404;28;20453;-72
2021/10/27 17:14:34;;;;;;;9.18;3.63;;;14.50;99.90;;;;;;5095351;28;20376;-72
2021/10/27 17:17:00;;;;;;;7.50;3.55;;;14.50;99.90;;;;;;5110172;28;20051;-72
2021/10/27 17:19:26;;;;;;;11.57;4.05;;;14.50;99.90;;;;;;5094402;28;20384;-71